Atlanta, GA

5:58 PM EST on December 19, 2014 (GMT -0500)
Lake Charlotte - Air Liquide | Change Station
CLOSE
Current Station
Personal Weather Station
Location: Conley, GA
Elevation: 1017 ft
Nearby Weather Stations

Elev 1017 ft 33.67 °N, 84.35 °W | Updated 7 seconds ago

Overcast
Overcast
49.3 °F
Feels Like 49 °F
N
1.0
Wind Variable Wind from WNW
Gusts 1.0 mph

Today
High -- | Low -- °F
--% Chance of Precip.
Yesterday
High -- | Low -- °F
Precip. -- in
7:36 AM 5:32 PM
Waning Crescent, 6% visible
Pressure 30.11 in
Visibility 10.0 miles
Clouds Overcast 15000 ft
Windchill 49 °F
Dew Point 36 °F
Humidity 61%
Rainfall 0.00 in
Snow Depth Not available.
UV 0.0 out of 12
Pollen 1.70 out of 12
Air Quality Not available.
Flu Activity Not available.
METAR KATL 192152Z 33008KT 10SM OVC150 11/01 A3010 RMK AO2 SLP195 T01060011

More Conditions Fewer Conditions

Pressure 30.11 in
Visibility 10.0 miles
Clouds Overcast 15000 ft
Windchill 49 °F
Dew Point 36 °F
Humidity 61%
Rainfall 0.00 in
Snow Depth Not available.
UV 0.0 out of 12
Pollen 1.70 out of 12
Air Quality Not available.
Flu Activity Not available.
METAR KATL 192152Z 33008KT 10SM OVC150 11/01 A3010 RMK AO2 SLP195 T01060011

More Conditions Fewer Conditions

10-Day Weather Forecast

Almanac

Astronomy

Dec. 19, 2014 Rise Set
Actual Time
Civil Twilight
Nautical Twilight
Astronomical Twilight
Moon
Length of Visible Light
Length of Day
Tomorrow will be .
, % of the Moon is Illuminated

Today's Extremes

State Highs State Lows

Community

WunderPhotos

Upload Photos

1,779,071 photos uploaded!

WunderBlogs® & News

Nearby

Air Quality

  Air Quality AQ Index Pollutant
Not available.

Snow Depth

Station Depth Elevation

Earthquake Activity

City Distance Mag. Time & Date
Minimum magnitude displayed is 2.5.

Coastal Water Temperatures

Place Temperature

Nearby Weather Stations